Terminal Aerodrome Forecast
Issued by NWS Knoxville/Tri Cities, TN

Home | Current Version | Previous Version | Text Only | Print | Product List | Glossary On
Versions: 1 2 3 4 5 6 7 8 9 10 11 12 13 14 15 16 17
000
FTUS44 KMRX 051508 AAA
TAFTYS
TAF AMD
KTYS 051508Z 0515/0612 00000KT 3SM -DZ BR OVC006
     FM051600 03005KT P6SM OVC015
      TEMPO 0516/0518 4SM BR OVC006
     FM051800 04005KT P6SM BKN025
     FM060000 04007KT 3SM -RA BR OVC010
     FM060400 05008KT 2SM -RA BR OVC006
     FM061000 06009KT 3SM -RA BR SCT006 OVC040 WS020/19040KT=

USA.gov is the U.S. government's official web portal to all federal, state and local government web resources and services.